createdAt,value
2023-03-01T00:01:35.456Z,99626.53
2023-03-01T00:04:02.376Z,99624.13
2023-03-01T00:06:29.689Z,99622.38
2023-03-01T00:08:57.250Z,99623.84
2023-03-01T00:11:26.797Z,99618.09
2023-03-01T00:13:56.200Z,99609.00
2023-03-01T00:16:26.883Z,99607.41
2023-03-01T00:18:54.783Z,99612.03
2023-03-01T00:21:23.125Z,99613.94
2023-03-01T00:23:50.283Z,99613.00
2023-03-01T00:26:19.004Z,99603.47
2023-03-01T00:28:46.728Z,99602.66
2023-03-01T00:31:16.038Z,99606.16
2023-03-01T00:33:44.800Z,99604.41
2023-03-01T00:36:13.369Z,99603.63
2023-03-01T00:38:41.975Z,99599.31
2023-03-01T00:41:11.032Z,99597.84
2023-03-01T00:43:38.197Z,99603.09
2023-03-01T00:46:07.070Z,99606.59
2023-03-01T00:48:34.198Z,99607.41
2023-03-01T00:51:07.807Z,99607.22
2023-03-01T00:53:35.215Z,99610.75
2023-03-01T00:56:02.418Z,99603.09
2023-03-01T00:58:29.653Z,99600.56
2023-03-01T01:00:56.680Z,99601.22
2023-03-01T01:03:25.807Z,99596.13
2023-03-01T01:05:53.233Z,99597.41
2023-03-01T01:08:22.000Z,99590.25
2023-03-01T01:10:49.129Z,99580.31
2023-03-01T01:13:16.099Z,99581.44
2023-03-01T01:15:43.238Z,99591.03
2023-03-01T01:18:10.246Z,99589.50
2023-03-01T01:20:38.454Z,99583.13
2023-03-01T01:23:07.623Z,99578.84
2023-03-01T01:25:37.868Z,99587.63
2023-03-01T01:28:04.962Z,99580.31
2023-03-01T01:30:31.908Z,99575.09
2023-03-01T01:32:58.854Z,99569.84
2023-03-01T01:35:25.965Z,99563.63
2023-03-01T01:37:52.977Z,99559.19
2023-03-01T01:40:20.164Z,99553.13
2023-03-01T01:42:48.476Z,99555.03
2023-03-01T01:45:31.613Z,99547.22
2023-03-01T01:48:02.118Z,99541.97
2023-03-01T01:50:38.696Z,99541.69
2023-03-01T01:53:10.218Z,99538.81
2023-03-01T01:55:41.987Z,99540.09
2023-03-01T01:58:12.121Z,99528.03
2023-03-01T02:00:40.171Z,99531.19
2023-03-01T02:03:11.108Z,99532.97
2023-03-01T02:05:44.352Z,99529.59
2023-03-01T02:08:13.483Z,99522.91
2023-03-01T02:10:41.790Z,99526.09
2023-03-01T02:13:12.007Z,99525.16
2023-03-01T02:15:40.768Z,99526.91
2023-03-01T02:18:09.414Z,99529.31
2023-03-01T02:20:46.537Z,99535.06
2023-03-01T02:23:13.483Z,99536.28
2023-03-01T02:25:48.060Z,99536.94
2023-03-01T02:28:30.452Z,99536.88
2023-03-01T02:31:16.436Z,99540.97
2023-03-01T02:33:45.128Z,99548.09
2023-03-01T02:36:15.514Z,99550.16
2023-03-01T02:38:43.806Z,99537.09
2023-03-01T02:41:13.267Z,99537.09
2023-03-01T02:43:41.852Z,99537.69
2023-03-01T02:46:15.617Z,99537.34
2023-03-01T02:48:44.995Z,99542.72
2023-03-01T02:51:24.655Z,99541.28
2023-03-01T02:54:02.706Z,99544.50
2023-03-01T02:56:31.024Z,99541.13
2023-03-01T02:59:01.777Z,99538.75
2023-03-01T03:01:37.591Z,99537.75
2023-03-01T03:04:07.039Z,99533.09
2023-03-01T03:06:34.575Z,99535.00
2023-03-01T03:09:01.752Z,99530.22
2023-03-01T03:11:28.936Z,99530.84
2023-03-01T03:13:56.218Z,99528.97
2023-03-01T03:16:25.714Z,99522.06
2023-03-01T03:18:52.791Z,99534.34
2023-03-01T03:21:19.754Z,99520.31
2023-03-01T03:23:46.672Z,99528.91
2023-03-01T03:26:14.417Z,99522.22
2023-03-01T03:28:41.433Z,99519.28
2023-03-01T03:31:09.383Z,99523.47
2023-03-01T03:33:38.156Z,99520.63
2023-03-01T03:36:06.002Z,99511.94
2023-03-01T03:38:33.321Z,99518.00
2023-03-01T03:41:05.351Z,99523.69
2023-03-01T03:43:33.955Z,99520.19
2023-03-01T03:46:01.691Z,99522.81
2023-03-01T03:48:28.713Z,99525.06
2023-03-01T03:50:57.598Z,99531.13
2023-03-01T03:53:26.623Z,99529.66
2023-03-01T03:55:54.281Z,99526.63
2023-03-01T03:58:23.677Z,99532.13
2023-03-01T04:00:52.436Z,99525.75
2023-03-01T04:03:20.875Z,99523.34
2023-03-01T04:05:48.988Z,99527.88
2023-03-01T04:08:17.955Z,99533.09
2023-03-01T04:10:48.876Z,99548.38
2023-03-01T04:13:20.711Z,99541.03
2023-03-01T04:15:49.367Z,99530.84
2023-03-01T04:18:18.205Z,99548.00
2023-03-01T04:20:46.182Z,99531.81
2023-03-01T04:23:16.923Z,99528.16
2023-03-01T04:25:54.976Z,99523.00
2023-03-01T04:28:22.946Z,99523.94
2023-03-01T04:30:49.910Z,99528.25
2023-03-01T04:33:16.958Z,99535.88
2023-03-01T04:35:44.113Z,99527.00
2023-03-01T04:38:11.516Z,99537.91
2023-03-01T04:40:38.641Z,99542.50
2023-03-01T04:43:06.988Z,99530.25
2023-03-01T04:45:35.508Z,99550.34
2023-03-01T04:48:03.050Z,99543.22
2023-03-01T04:50:30.745Z,99543.84
2023-03-01T04:53:00.226Z,99546.91
2023-03-01T04:55:28.409Z,99549.94
2023-03-01T04:57:55.966Z,99551.41
2023-03-01T05:00:24.982Z,99544.28
2023-03-01T05:02:54.789Z,99542.38
2023-03-01T05:05:26.621Z,99547.16
2023-03-01T05:07:55.855Z,99554.03
2023-03-01T05:10:23.117Z,99551.63
2023-03-01T05:12:50.088Z,99546.84
2023-03-01T05:15:17.294Z,99542.69
2023-03-01T05:17:45.632Z,99532.66
2023-03-01T05:20:12.879Z,99526.75
2023-03-01T05:22:39.845Z,99534.97
2023-03-01T05:25:08.295Z,99541.03
2023-03-01T05:27:35.938Z,99540.50
2023-03-01T05:30:14.449Z,99540.34
2023-03-01T05:32:44.009Z,99550.38
2023-03-01T05:35:14.230Z,99542.91
2023-03-01T05:37:42.712Z,99539.44
2023-03-01T05:40:16.707Z,99536.75
2023-03-01T05:42:44.620Z,99535.50
2023-03-01T05:45:13.434Z,99525.81
2023-03-01T05:47:44.443Z,99529.66
2023-03-01T05:50:20.807Z,99540.94
2023-03-01T05:52:53.538Z,99540.00
2023-03-01T05:55:22.236Z,99544.44
2023-03-01T05:57:49.489Z,99542.03
2023-03-01T06:00:19.598Z,99536.94
2023-03-01T06:02:46.777Z,99536.88
2023-03-01T06:05:15.740Z,99533.25
2023-03-01T06:07:42.863Z,99530.41
2023-03-01T06:10:11.436Z,99531.19
2023-03-01T06:12:39.844Z,99533.16
2023-03-01T06:15:10.756Z,99537.13
2023-03-01T06:17:39.495Z,99529.34
2023-03-01T06:20:10.646Z,99530.97
2023-03-01T06:22:39.183Z,99522.72
2023-03-01T06:25:07.353Z,99528.47
2023-03-01T06:27:34.295Z,99530.69
2023-03-01T06:30:01.223Z,99524.63
2023-03-01T06:32:28.200Z,99529.06
2023-03-01T06:34:55.161Z,99534.81
2023-03-01T06:37:22.057Z,99539.09
2023-03-01T06:39:50.945Z,99537.06
2023-03-01T06:42:17.858Z,99541.06
2023-03-01T06:44:46.670Z,99535.53
2023-03-01T06:47:13.673Z,99533.13
2023-03-01T06:49:42.572Z,99529.22
2023-03-01T06:52:09.507Z,99539.88
2023-03-01T06:54:38.029Z,99525.09
2023-03-01T06:57:06.357Z,99527.00
2023-03-01T06:59:33.421Z,99532.09
2023-03-01T07:02:00.434Z,99533.72
2023-03-01T07:04:29.630Z,99542.66
2023-03-01T07:06:56.588Z,99537.41
2023-03-01T07:09:24.515Z,99532.66
2023-03-01T07:11:51.778Z,99541.88
2023-03-01T07:14:21.156Z,99545.91
2023-03-01T07:16:48.418Z,99542.25
2023-03-01T07:19:15.309Z,99550.69
2023-03-01T07:21:42.273Z,99551.91
2023-03-01T07:24:09.741Z,99561.50
2023-03-01T07:26:37.285Z,99558.97
2023-03-01T07:29:05.609Z,99561.38
2023-03-01T07:31:34.047Z,99556.94
2023-03-01T07:34:00.981Z,99572.06
2023-03-01T07:36:28.021Z,99568.91
2023-03-01T07:38:56.695Z,99566.06
2023-03-01T07:41:23.667Z,99562.41
2023-03-01T07:43:50.759Z,99565.75
2023-03-01T07:46:18.806Z,99561.16
2023-03-01T07:48:47.293Z,99564.19
2023-03-01T07:51:14.463Z,99571.41
2023-03-01T07:53:41.439Z,99566.59
2023-03-01T07:56:10.235Z,99571.03
2023-03-01T07:58:38.578Z,99575.06
2023-03-01T08:01:07.286Z,99575.06
2023-03-01T08:03:34.669Z,99568.03
2023-03-01T08:06:04.232Z,99569.19
2023-03-01T08:08:31.646Z,99564.88
2023-03-01T08:10:58.712Z,99566.63
2023-03-01T08:13:26.024Z,99568.69
2023-03-01T08:15:53.600Z,99570.78
2023-03-01T08:18:22.127Z,99559.94
2023-03-01T08:20:49.350Z,99555.66
2023-03-01T08:23:17.643Z,99561.34
2023-03-01T08:25:44.795Z,99561.34
2023-03-01T08:28:11.760Z,99562.00
2023-03-01T08:30:41.470Z,99559.47
2023-03-01T08:33:08.521Z,99550.06
2023-03-01T08:35:35.557Z,99549.59
2023-03-01T08:38:02.521Z,99548.78
2023-03-01T08:40:30.846Z,99540.06
2023-03-01T08:42:59.092Z,99547.84
2023-03-01T08:45:26.192Z,99544.19
2023-03-01T08:47:53.962Z,99549.16
2023-03-01T08:50:21.049Z,99552.84
2023-03-01T08:52:48.042Z,99552.06
2023-03-01T08:55:17.319Z,99550.31
2023-03-01T08:57:48.178Z,99550.00
2023-03-01T09:00:16.256Z,99553.97
2023-03-01T09:02:43.211Z,99548.41
2023-03-01T09:05:10.383Z,99543.78
2023-03-01T09:07:37.612Z,99554.34
2023-03-01T09:10:06.093Z,99550.97
2023-03-01T09:12:33.059Z,99551.13
2023-03-01T09:15:01.384Z,99547.31
2023-03-01T09:17:28.879Z,99541.38
2023-03-01T09:19:55.808Z,99539.03
2023-03-01T09:22:22.759Z,99548.88
2023-03-01T09:24:52.513Z,99532.47
2023-03-01T09:27:20.677Z,99541.72
2023-03-01T09:29:47.653Z,99533.59
2023-03-01T09:32:16.013Z,99537.28
2023-03-01T09:35:01.766Z,99536.97
2023-03-01T09:37:28.805Z,99536.97
2023-03-01T09:39:55.762Z,99536.97
2023-03-01T09:42:22.904Z,99534.09
2023-03-01T09:44:58.631Z,99529.16
2023-03-01T09:47:28.880Z,99540.47
2023-03-01T09:50:03.062Z,99532.31
2023-03-01T09:52:36.843Z,99532.31
2023-03-01T09:55:11.451Z,99528.19
2023-03-01T09:57:47.146Z,99523.28
2023-03-01T10:00:24.636Z,99518.19
2023-03-01T10:03:00.835Z,99521.41
2023-03-01T10:05:44.614Z,99517.75
2023-03-01T10:08:37.374Z,99514.09
2023-03-01T10:11:05.914Z,99512.53
2023-03-01T10:13:39.538Z,99506.75
2023-03-01T10:16:14.816Z,99505.81
2023-03-01T10:18:47.712Z,99506.78
2023-03-01T10:21:17.747Z,99492.91
2023-03-01T10:23:44.967Z,99502.00
2023-03-01T10:26:33.621Z,99496.91
2023-03-01T10:29:04.184Z,99496.25
2023-03-01T10:31:40.427Z,99495.63
2023-03-01T10:34:18.404Z,99486.69
2023-03-01T10:36:49.352Z,99488.28
2023-03-01T10:39:19.208Z,99472.97
2023-03-01T10:41:56.229Z,99466.56
2023-03-01T10:44:45.633Z,99457.28
2023-03-01T10:47:25.694Z,99458.06
2023-03-01T10:49:57.127Z,99456.63
2023-03-01T10:52:26.876Z,99448.31
2023-03-01T10:54:56.909Z,99450.22
2023-03-01T10:57:39.930Z,99449.13
2023-03-01T11:00:23.379Z,99442.56
2023-03-01T11:02:52.896Z,99433.78
2023-03-01T11:05:29.536Z,99434.25
2023-03-01T11:07:58.607Z,99438.88
2023-03-01T11:10:30.788Z,99436.16
2023-03-01T11:13:08.104Z,99441.44
2023-03-01T11:15:35.533Z,99430.78
2023-03-01T11:18:13.843Z,99434.81
2023-03-01T11:20:44.488Z,99425.56
2023-03-01T11:23:16.944Z,99422.56
2023-03-01T11:25:52.187Z,99422.06
2023-03-01T11:28:20.098Z,99412.31
2023-03-01T11:31:05.738Z,99412.63
2023-03-01T11:33:40.646Z,99410.56
2023-03-01T11:36:17.690Z,99410.88
2023-03-01T11:38:45.039Z,99415.50
2023-03-01T11:41:17.214Z,99408.94
2023-03-01T11:43:52.051Z,99410.25
2023-03-01T11:46:44.329Z,99405.63
2023-03-01T11:49:30.326Z,99401.94
2023-03-01T11:52:08.512Z,99401.78
2023-03-01T11:54:49.835Z,99403.69
2023-03-01T11:57:37.772Z,99396.03
2023-03-01T12:00:25.756Z,99387.53
2023-03-01T12:03:21.047Z,99392.63
2023-03-01T12:06:32.564Z,99396.00
2023-03-01T12:09:15.358Z,99398.88
2023-03-01T12:11:56.849Z,99397.81
2023-03-01T12:14:55.565Z,99390.63
2023-03-01T12:17:38.553Z,99389.03
2023-03-01T12:20:23.525Z,99397.63
2023-03-01T12:23:19.414Z,99397.78
2023-03-01T12:25:54.453Z,99391.59
2023-03-01T12:28:39.370Z,99394.94
2023-03-01T12:31:41.367Z,99396.06
2023-03-01T12:34:22.190Z,99389.03
2023-03-01T12:37:02.730Z,99376.28
2023-03-01T12:39:41.731Z,99381.22
2023-03-01T12:42:22.289Z,99374.69
2023-03-01T12:45:13.512Z,99376.28
2023-03-01T12:47:58.796Z,99371.66
2023-03-01T12:50:31.175Z,99371.31
2023-03-01T12:52:58.782Z,99371.44
2023-03-01T12:55:31.165Z,99376.53
2023-03-01T12:58:05.943Z,99383.09
2023-03-01T13:00:38.012Z,99373.03
2023-03-01T13:03:16.336Z,99382.00
2023-03-01T13:05:57.360Z,99376.13
2023-03-01T13:08:30.931Z,99374.19
2023-03-01T13:11:01.749Z,99363.97
2023-03-01T13:13:30.869Z,99366.06
2023-03-01T13:15:58.645Z,99365.13
2023-03-01T13:18:31.801Z,99362.38
2023-03-01T13:21:01.507Z,99372.44
2023-03-01T13:23:32.035Z,99363.97
2023-03-01T13:26:14.017Z,99365.09
2023-03-01T13:28:50.840Z,99367.31
2023-03-01T13:32:00.522Z,99359.50
2023-03-01T13:34:51.325Z,99358.56
2023-03-01T13:37:30.610Z,99356.53
2023-03-01T13:39:59.857Z,99350.94
2023-03-01T13:42:38.412Z,99350.66
2023-03-01T13:45:18.158Z,99356.06
2023-03-01T13:47:48.287Z,99357.34
2023-03-01T13:50:22.224Z,99355.88
2023-03-01T13:52:53.288Z,99355.72
2023-03-01T13:55:24.558Z,99357.19
2023-03-01T13:57:54.854Z,99360.03
2023-03-01T14:00:35.618Z,99354.13
2023-03-01T14:03:11.102Z,99354.63
2023-03-01T14:05:39.536Z,99350.81
2023-03-01T14:08:20.677Z,99355.94
2023-03-01T14:11:00.021Z,99353.38
2023-03-01T14:13:39.089Z,99359.44
2023-03-01T14:16:19.339Z,99365.81
2023-03-01T14:18:54.935Z,99354.34
2023-03-01T14:21:23.645Z,99347.00
2023-03-01T14:23:50.715Z,99338.22
2023-03-01T14:26:22.533Z,99347.00
2023-03-01T14:28:51.754Z,99349.69
2023-03-01T14:31:52.003Z,99341.88
2023-03-01T14:34:21.881Z,99347.00
2023-03-01T14:36:48.880Z,99344.28
2023-03-01T14:39:21.361Z,99342.25
2023-03-01T14:41:49.779Z,99334.59
2023-03-01T14:44:23.935Z,99340.31
2023-03-01T14:46:56.117Z,99335.53
2023-03-01T14:49:25.453Z,99338.88
2023-03-01T14:51:56.120Z,99341.13
2023-03-01T14:54:26.880Z,99345.09
2023-03-01T14:56:55.015Z,99334.88
2023-03-01T14:59:24.507Z,99328.97
2023-03-01T15:01:52.909Z,99339.69
2023-03-01T15:04:23.353Z,99340.63
2023-03-01T15:06:52.868Z,99343.66
2023-03-01T15:09:20.109Z,99338.38
2023-03-01T15:11:47.119Z,99343.50
2023-03-01T15:14:40.080Z,99349.09
2023-03-01T15:17:21.953Z,99341.91
2023-03-01T15:19:50.550Z,99336.63
2023-03-01T15:22:18.482Z,99332.97
2023-03-01T15:24:49.243Z,99334.91
2023-03-01T15:27:18.220Z,99333.47
2023-03-01T15:29:50.466Z,99345.09
2023-03-01T15:32:28.215Z,99347.50
2023-03-01T15:34:57.356Z,99340.31
2023-03-01T15:37:45.670Z,99352.75
2023-03-01T15:40:22.403Z,99350.53
2023-03-01T15:42:49.628Z,99340.66
2023-03-01T15:45:24.445Z,99348.28
2023-03-01T15:47:53.756Z,99349.25
2023-03-01T15:50:24.897Z,99351.66
2023-03-01T15:52:52.249Z,99355.13
2023-03-01T15:55:21.085Z,99354.69
2023-03-01T15:57:48.921Z,99359.63
2023-03-01T16:00:18.506Z,99356.91
2023-03-01T16:02:45.783Z,99355.31
2023-03-01T16:05:24.364Z,99357.22
2023-03-01T16:07:52.056Z,99361.38
2023-03-01T16:10:20.055Z,99359.13
2023-03-01T16:12:48.443Z,99361.53
2023-03-01T16:15:17.922Z,99358.50
2023-03-01T16:17:45.171Z,99366.94
2023-03-01T16:20:28.424Z,99363.13
2023-03-01T16:22:56.873Z,99360.72
2023-03-01T16:25:23.775Z,99365.66
2023-03-01T16:27:52.000Z,99375.41
2023-03-01T16:30:21.605Z,99389.72
2023-03-01T16:32:49.702Z,99373.97
2023-03-01T16:35:19.656Z,99382.91
2023-03-01T16:37:48.920Z,99375.06
2023-03-01T16:40:18.457Z,99380.31
2023-03-01T16:42:45.525Z,99379.53
2023-03-01T16:45:22.737Z,99384.16
2023-03-01T16:47:50.611Z,99389.41
2023-03-01T16:50:17.665Z,99391.31
2023-03-01T16:52:44.616Z,99395.16
2023-03-01T16:55:13.339Z,99399.28
2023-03-01T16:57:41.540Z,99396.28
2023-03-01T17:00:11.602Z,99403.44
2023-03-01T17:02:38.839Z,99407.59
2023-03-01T17:05:06.982Z,99402.16
2023-03-01T17:07:35.217Z,99409.00
2023-03-01T17:10:02.846Z,99409.31
2023-03-01T17:12:31.283Z,99412.22
2023-03-01T17:14:58.391Z,99406.16
2023-03-01T17:17:25.449Z,99406.00
2023-03-01T17:19:55.678Z,99406.97
2023-03-01T17:22:22.977Z,99407.44
2023-03-01T17:24:49.946Z,99405.69
2023-03-01T17:27:17.891Z,99392.59
2023-03-01T17:29:46.367Z,99389.72
2023-03-01T17:32:13.661Z,99390.06
2023-03-01T17:34:40.788Z,99379.56
2023-03-01T17:37:07.895Z,99386.56
2023-03-01T17:39:36.498Z,99390.06
2023-03-01T17:42:06.185Z,99383.69
2023-03-01T17:44:34.619Z,99387.34
2023-03-01T17:47:03.842Z,99384.47
2023-03-01T17:49:31.718Z,99383.97
2023-03-01T17:51:59.115Z,99382.41
2023-03-01T17:54:26.524Z,99375.56
2023-03-01T17:56:53.567Z,99370.63
2023-03-01T17:59:20.766Z,99374.59
2023-03-01T18:01:48.184Z,99383.22
2023-03-01T18:04:18.480Z,99390.69
2023-03-01T18:06:45.593Z,99387.03
2023-03-01T18:09:12.543Z,99388.94
2023-03-01T18:11:42.034Z,99386.22
2023-03-01T18:14:08.985Z,99387.50
2023-03-01T18:16:36.435Z,99387.34
2023-03-01T18:19:03.557Z,99380.50
2023-03-01T18:21:32.886Z,99376.97
2023-03-01T18:24:00.024Z,99371.88
2023-03-01T18:26:28.083Z,99372.69
2023-03-01T18:28:58.168Z,99379.53
2023-03-01T18:31:25.620Z,99369.34
2023-03-01T18:33:55.102Z,99365.19
2023-03-01T18:36:24.385Z,99368.38
2023-03-01T18:38:56.625Z,99366.94
2023-03-01T18:41:25.281Z,99360.88
2023-03-01T18:43:52.730Z,99362.00
2023-03-01T18:46:22.914Z,99371.75
2023-03-01T18:48:49.913Z,99373.47
2023-03-01T18:51:18.356Z,99366.94
2023-03-01T18:53:45.426Z,99369.19
2023-03-01T18:56:14.364Z,99360.88
2023-03-01T18:58:43.081Z,99363.78
2023-03-01T19:01:14.321Z,99365.19
2023-03-01T19:03:41.466Z,99362.34
2023-03-01T19:06:08.491Z,99361.53
2023-03-01T19:08:35.599Z,99360.56
2023-03-01T19:11:05.392Z,99359.44
2023-03-01T19:13:37.372Z,99372.34
2023-03-01T19:16:07.016Z,99378.88
2023-03-01T19:18:34.091Z,99377.31
2023-03-01T19:21:04.289Z,99381.28
2023-03-01T19:23:36.387Z,99378.59
2023-03-01T19:26:09.037Z,99382.06
2023-03-01T19:28:39.592Z,99384.63
2023-03-01T19:31:08.466Z,99383.03
2023-03-01T19:33:36.415Z,99371.41
2023-03-01T19:36:04.828Z,99382.06
2023-03-01T19:38:31.810Z,99380.16
2023-03-01T19:40:58.875Z,99385.41
2023-03-01T19:43:25.823Z,99382.72
2023-03-01T19:45:55.252Z,99374.41
2023-03-01T19:48:22.847Z,99381.59
2023-03-01T19:50:52.290Z,99382.72
2023-03-01T19:53:20.037Z,99378.25
2023-03-01T19:55:46.987Z,99379.50
2023-03-01T19:58:13.931Z,99377.28
2023-03-01T20:00:44.942Z,99380.78
2023-03-01T20:03:13.518Z,99386.81
2023-03-01T20:05:42.817Z,99384.91
2023-03-01T20:08:09.825Z,99373.00
2023-03-01T20:10:36.777Z,99382.72
2023-03-01T20:13:03.748Z,99377.28
2023-03-01T20:15:31.159Z,99366.78
2023-03-01T20:17:58.118Z,99367.41
2023-03-01T20:20:26.595Z,99372.19
2023-03-01T20:22:53.568Z,99372.53
2023-03-01T20:25:20.512Z,99372.03
2023-03-01T20:27:47.904Z,99370.13
2023-03-01T20:30:15.657Z,99373.47
2023-03-01T20:32:43.041Z,99368.38
2023-03-01T20:35:11.333Z,99362.78
2023-03-01T20:37:39.681Z,99361.97
2023-03-01T20:40:09.586Z,99361.50
2023-03-01T20:42:36.611Z,99363.75
2023-03-01T20:45:04.374Z,99362.31
2023-03-01T20:47:31.278Z,99366.63
2023-03-01T20:50:01.455Z,99363.72
2023-03-01T20:52:32.341Z,99359.44
2023-03-01T20:55:08.310Z,99363.72
2023-03-01T20:57:35.723Z,99365.34
2023-03-01T21:00:06.847Z,99368.66
2023-03-01T21:02:33.771Z,99370.25
2023-03-01T21:05:00.805Z,99369.47
2023-03-01T21:07:27.800Z,99362.44
2023-03-01T21:09:54.808Z,99367.38
2023-03-01T21:12:23.100Z,99364.22
2023-03-01T21:14:50.036Z,99361.03
2023-03-01T21:17:17.824Z,99363.88
2023-03-01T21:19:45.264Z,99357.81
2023-03-01T21:22:13.791Z,99363.72
2023-03-01T21:24:40.976Z,99365.16
2023-03-01T21:27:08.151Z,99372.19
2023-03-01T21:29:37.355Z,99363.72
2023-03-01T21:32:05.087Z,99371.88
2023-03-01T21:34:32.542Z,99364.22
2023-03-01T21:36:59.829Z,99358.78
2023-03-01T21:39:28.946Z,99361.03
2023-03-01T21:41:57.331Z,99351.31
2023-03-01T21:44:25.113Z,99354.34
2023-03-01T21:46:53.634Z,99361.50
2023-03-01T21:49:21.841Z,99358.16
2023-03-01T21:51:49.056Z,99356.22
2023-03-01T21:54:17.741Z,99355.91
2023-03-01T21:56:45.931Z,99361.19
2023-03-01T21:59:15.062Z,99364.53
2023-03-01T22:01:43.439Z,99363.25
2023-03-01T22:04:13.168Z,99361.03
2023-03-01T22:06:45.481Z,99353.38
2023-03-01T22:09:14.497Z,99365.50
2023-03-01T22:11:43.696Z,99362.78
2023-03-01T22:14:13.612Z,99359.13
2023-03-01T22:16:42.993Z,99355.91
2023-03-01T22:19:12.213Z,99351.63
2023-03-01T22:21:40.152Z,99354.69
2023-03-01T22:24:08.198Z,99360.91
2023-03-01T22:26:37.472Z,99356.91
2023-03-01T22:29:06.771Z,99350.53
2023-03-01T22:31:34.115Z,99356.09
2023-03-01T22:34:02.000Z,99355.31
2023-03-01T22:36:31.470Z,99351.81
2023-03-01T22:39:00.281Z,99347.50
2023-03-01T22:41:28.545Z,99346.06
2023-03-01T22:43:55.648Z,99346.56
2023-03-01T22:46:22.974Z,99357.69
2023-03-01T22:48:50.074Z,99343.03
2023-03-01T22:51:19.299Z,99349.56
2023-03-01T22:53:48.260Z,99359.28
2023-03-01T22:56:17.856Z,99361.84
2023-03-01T22:58:45.291Z,99358.19
2023-03-01T23:01:14.050Z,99364.09
2023-03-01T23:03:41.369Z,99360.56
2023-03-01T23:06:09.182Z,99353.38
2023-03-01T23:08:36.724Z,99357.56
2023-03-01T23:11:10.524Z,99354.84
2023-03-01T23:13:37.557Z,99358.97
2023-03-01T23:16:05.096Z,99356.44
2023-03-01T23:18:32.020Z,99358.19
2023-03-01T23:20:59.132Z,99350.69
2023-03-01T23:23:26.733Z,99352.28
2023-03-01T23:25:54.849Z,99360.56
2023-03-01T23:28:23.702Z,99364.88
2023-03-01T23:30:54.937Z,99364.25
2023-03-01T23:33:21.963Z,99360.25
2023-03-01T23:35:48.997Z,99368.06
2023-03-01T23:38:15.975Z,99362.81
2023-03-01T23:40:43.039Z,99360.25
2023-03-01T23:43:10.071Z,99360.25
2023-03-01T23:45:42.942Z,99349.25
2023-03-01T23:48:11.699Z,99356.09
2023-03-01T23:50:42.210Z,99351.97
2023-03-01T23:53:14.312Z,99352.44
2023-03-01T23:55:45.900Z,99355.47
2023-03-01T23:58:13.604Z,99345.75
